createdAt,value
2022-11-03T00:00:00.222Z,2.8
2022-11-03T00:05:00.207Z,2.3
2022-11-03T00:10:00.226Z,3.4
2022-11-03T00:15:00.191Z,2.5
2022-11-03T00:20:00.225Z,2.1
2022-11-03T00:25:00.214Z,2.7
2022-11-03T00:30:00.228Z,2.4
2022-11-03T00:35:00.231Z,2.6
2022-11-03T00:40:00.236Z,2.7
2022-11-03T00:45:00.237Z,2.3
2022-11-03T00:50:00.204Z,2.3
2022-11-03T00:55:00.256Z,2.8
2022-11-03T01:00:00.240Z,2.2
2022-11-03T01:05:00.226Z,2.8
2022-11-03T01:10:00.220Z,2.4
2022-11-03T01:15:00.216Z,2.4
2022-11-03T01:20:00.232Z,2.1
2022-11-03T01:25:00.235Z,2.5
2022-11-03T01:30:00.231Z,2.4
2022-11-03T01:35:00.236Z,2.3
2022-11-03T01:40:00.216Z,2.5
2022-11-03T01:45:00.245Z,2.7
2022-11-03T01:50:00.225Z,2.6
2022-11-03T01:55:00.194Z,2.2
2022-11-03T02:00:00.249Z,2.5
2022-11-03T02:05:00.229Z,2.4
2022-11-03T02:10:00.306Z,1.9
2022-11-03T02:15:00.219Z,2.6
2022-11-03T02:20:00.221Z,2.6
2022-11-03T02:25:00.366Z,2.6
2022-11-03T02:30:00.305Z,2.1
2022-11-03T02:35:00.202Z,2.2
2022-11-03T02:40:00.554Z,1.8
2022-11-03T02:45:00.237Z,2.1
2022-11-03T02:50:00.387Z,2.2
2022-11-03T02:55:00.228Z,2.5
2022-11-03T03:00:00.314Z,2.0
2022-11-03T03:05:00.226Z,2.4
2022-11-03T03:10:00.233Z,2.2
2022-11-03T03:15:00.187Z,1.9
2022-11-03T03:20:00.239Z,2.3
2022-11-03T03:25:00.222Z,2.0
2022-11-03T03:30:00.230Z,2.6
2022-11-03T03:35:00.224Z,2.2
2022-11-03T03:40:00.244Z,2.2
2022-11-03T03:45:00.213Z,2.2
2022-11-03T03:50:00.231Z,2.3
2022-11-03T03:55:00.218Z,2.3
2022-11-03T04:00:00.271Z,2.4
2022-11-03T04:05:00.259Z,2.6
2022-11-03T04:10:00.279Z,2.8
2022-11-03T04:15:00.242Z,1.7
2022-11-03T04:20:00.197Z,2.4
2022-11-03T04:25:00.242Z,2.0
2022-11-03T04:30:00.277Z,2.2
2022-11-03T04:35:00.228Z,2.1
2022-11-03T04:40:00.285Z,2.0
2022-11-03T04:45:00.223Z,2.7
2022-11-03T04:50:00.206Z,1.9
2022-11-03T04:55:00.234Z,2.8
2022-11-03T05:00:00.264Z,2.1
2022-11-03T05:05:00.255Z,1.8
2022-11-03T05:10:00.234Z,2.5
2022-11-03T05:15:00.200Z,2.8
2022-11-03T05:20:00.260Z,2.8
2022-11-03T05:25:00.209Z,2.5
2022-11-03T05:30:01.096Z,1.8
2022-11-03T05:35:00.297Z,2.0
2022-11-03T05:40:00.243Z,2.3
2022-11-03T05:45:00.231Z,1.7
2022-11-03T05:50:00.524Z,2.0
2022-11-03T05:55:00.279Z,2.0
2022-11-03T06:00:00.343Z,2.1
2022-11-03T06:05:00.260Z,1.9
2022-11-03T06:10:00.229Z,1.9
2022-11-03T06:15:00.204Z,1.9
2022-11-03T06:20:00.345Z,1.9
2022-11-03T06:25:00.194Z,2.1
2022-11-03T06:30:00.287Z,2.5
2022-11-03T06:35:00.273Z,2.3
2022-11-03T06:40:00.268Z,2.1
2022-11-03T06:45:00.272Z,2.5
2022-11-03T06:50:00.216Z,2.2
2022-11-03T06:55:00.240Z,2.5
2022-11-03T07:00:28.467Z,2.3
2022-11-03T07:10:00.361Z,2.4
2022-11-03T07:15:00.280Z,2.2
2022-11-03T07:20:00.218Z,2.1
2022-11-03T07:25:00.269Z,2.5
2022-11-03T07:30:00.258Z,2.1
2022-11-03T07:35:00.224Z,2.1
2022-11-03T07:40:00.226Z,2.2
2022-11-03T07:45:00.239Z,2.4
2022-11-03T07:50:00.241Z,1.8
2022-11-03T07:55:00.230Z,2.4
2022-11-03T08:00:02.645Z,1.8
2022-11-03T08:05:00.257Z,2.3
2022-11-03T08:10:00.208Z,2.1
2022-11-03T08:15:00.256Z,2.0
2022-11-03T08:20:00.223Z,2.5
2022-11-03T08:25:00.240Z,2.4
2022-11-03T08:30:00.233Z,2.6
2022-11-03T08:35:00.265Z,2.1
2022-11-03T08:40:00.264Z,2.4
2022-11-03T08:45:00.214Z,2.0
2022-11-03T08:50:00.221Z,2.2
2022-11-03T08:55:00.341Z,2.2
2022-11-03T09:00:00.272Z,2.4
2022-11-03T09:05:00.226Z,2.5
2022-11-03T09:10:28.502Z,2.6
2022-11-03T09:15:00.210Z,2.4
2022-11-03T09:20:01.397Z,2.7
2022-11-03T09:25:00.206Z,2.0
2022-11-03T09:30:12.738Z,3.0
2022-11-03T09:35:00.344Z,2.1
2022-11-03T09:40:00.247Z,2.6
2022-11-03T09:45:00.234Z,2.6
2022-11-03T09:50:00.248Z,2.2
2022-11-03T09:55:00.275Z,2.4
2022-11-03T10:00:00.243Z,2.4
2022-11-03T10:05:00.384Z,2.7
2022-11-03T10:10:00.198Z,2.4
2022-11-03T10:15:00.236Z,2.6
2022-11-03T10:20:00.241Z,2.2
2022-11-03T10:25:00.233Z,2.2
2022-11-03T10:30:00.224Z,1.8
2022-11-03T10:35:00.225Z,2.3
2022-11-03T10:40:00.214Z,2.2
2022-11-03T10:45:00.255Z,2.5
2022-11-03T10:50:00.225Z,1.8
2022-11-03T10:55:00.207Z,1.9
2022-11-03T11:00:00.540Z,1.9
2022-11-03T11:05:00.220Z,1.5
2022-11-03T11:10:00.212Z,2.0
2022-11-03T11:15:00.249Z,2.9
2022-11-03T11:20:00.210Z,2.1
2022-11-03T11:25:00.243Z,2.4
2022-11-03T11:30:00.215Z,2.0
2022-11-03T11:35:01.272Z,1.9
2022-11-03T11:40:00.205Z,1.9
2022-11-03T11:45:00.216Z,2.0
2022-11-03T11:50:00.221Z,2.0
2022-11-03T11:55:00.219Z,2.1
2022-11-03T12:00:00.300Z,2.0
2022-11-03T12:05:00.200Z,1.6
2022-11-03T12:10:00.238Z,1.6
2022-11-03T12:15:00.258Z,1.8
2022-11-03T12:20:00.263Z,1.8
2022-11-03T12:25:00.248Z,1.7
2022-11-03T12:30:00.244Z,1.8
2022-11-03T12:35:00.275Z,1.6
2022-11-03T12:40:00.328Z,1.8
2022-11-03T12:45:00.224Z,1.6
2022-11-03T12:50:00.255Z,1.7
2022-11-03T12:55:00.208Z,0.0
2022-11-03T13:00:00.486Z,1.6
2022-11-03T13:05:00.204Z,2.2
2022-11-03T13:10:00.224Z,2.2
2022-11-03T13:15:00.260Z,2.1
2022-11-03T13:20:00.372Z,2.5
2022-11-03T13:25:00.216Z,1.6
2022-11-03T13:30:00.219Z,1.9
2022-11-03T13:35:00.218Z,1.9
2022-11-03T13:40:00.227Z,2.1
2022-11-03T13:45:00.585Z,1.8
2022-11-03T13:50:13.494Z,1.5
2022-11-03T14:00:03.594Z,1.6
2022-11-03T14:05:00.253Z,1.6
2022-11-03T14:10:03.667Z,1.7
2022-11-03T14:15:00.223Z,1.5
2022-11-03T14:20:04.169Z,1.5
2022-11-03T14:25:00.215Z,1.6
2022-11-03T14:30:00.206Z,1.8
2022-11-03T14:35:00.317Z,4.1
2022-11-03T14:40:00.219Z,1.6
2022-11-03T14:45:00.281Z,1.4
2022-11-03T14:50:00.247Z,1.5
2022-11-03T14:55:00.252Z,2.0
2022-11-03T15:00:00.275Z,1.7
2022-11-03T15:05:00.267Z,1.7
2022-11-03T15:10:00.231Z,1.7
2022-11-03T15:15:00.259Z,1.7
2022-11-03T15:20:00.252Z,1.7
2022-11-03T15:25:18.216Z,1.7
2022-11-03T15:30:00.268Z,1.9
2022-11-03T15:35:00.245Z,2.0
2022-11-03T15:40:00.315Z,1.8
2022-11-03T15:45:00.269Z,1.8
2022-11-03T15:50:00.336Z,1.8
2022-11-03T15:55:00.271Z,1.9
2022-11-03T16:00:00.297Z,2.5
2022-11-03T16:05:00.242Z,2.0
2022-11-03T16:10:00.237Z,2.4
2022-11-03T16:15:00.171Z,2.1
2022-11-03T16:20:00.208Z,2.2
2022-11-03T16:25:00.203Z,2.3
2022-11-03T16:30:00.338Z,2.6
2022-11-03T16:35:00.211Z,2.5
2022-11-03T16:40:00.284Z,2.8
2022-11-03T16:45:00.222Z,2.7
2022-11-03T16:50:00.259Z,4.9
2022-11-03T16:55:00.207Z,3.6
2022-11-03T17:00:00.251Z,3.0
2022-11-03T17:05:00.288Z,2.8
2022-11-03T17:10:00.287Z,3.8
2022-11-03T17:15:00.222Z,4.3
2022-11-03T17:20:00.219Z,5.0
2022-11-03T17:25:00.256Z,3.6
2022-11-03T17:30:00.301Z,2.9
2022-11-03T17:35:00.209Z,3.2
2022-11-03T17:40:00.251Z,4.5
2022-11-03T17:45:00.230Z,4.4
2022-11-03T17:50:00.219Z,3.5
2022-11-03T17:55:00.220Z,3.9
2022-11-03T18:00:00.271Z,3.9
2022-11-03T18:05:00.221Z,4.2
2022-11-03T18:10:00.230Z,4.5
2022-11-03T18:15:00.257Z,3.9
2022-11-03T18:20:00.198Z,4.9
2022-11-03T18:25:00.257Z,5.0
2022-11-03T18:30:00.225Z,4.9
2022-11-03T18:40:00.226Z,4.7
2022-11-03T18:45:02.946Z,4.3
2022-11-03T18:50:00.392Z,5.0
2022-11-03T18:55:00.233Z,5.4
2022-11-03T19:00:00.315Z,6.2
2022-11-03T19:05:00.241Z,5.9
2022-11-03T19:10:00.282Z,5.1
2022-11-03T19:15:00.329Z,5.7
2022-11-03T19:20:00.294Z,5.1
2022-11-03T19:30:00.239Z,5.6
2022-11-03T19:40:00.222Z,5.8
2022-11-03T19:50:00.235Z,5.9
2022-11-03T19:55:00.249Z,5.1
2022-11-03T20:00:00.413Z,5.5
2022-11-03T20:05:00.275Z,4.9
2022-11-03T20:25:00.295Z,4.6
2022-11-03T20:30:00.208Z,5.4
2022-11-03T20:40:00.200Z,4.8
2022-11-03T20:50:00.285Z,6.6
2022-11-03T20:55:00.313Z,6.1
2022-11-03T21:00:00.378Z,5.3
2022-11-03T21:05:00.232Z,5.7
2022-11-03T21:10:00.232Z,4.9
2022-11-03T21:15:00.261Z,5.8
2022-11-03T21:20:00.305Z,6.2
2022-11-03T21:25:00.247Z,5.1
2022-11-03T21:30:00.530Z,5.5
2022-11-03T21:35:00.229Z,4.8
2022-11-03T21:40:00.229Z,5.0
2022-11-03T21:45:00.267Z,4.6
2022-11-03T21:55:00.291Z,4.7
2022-11-03T22:00:00.308Z,4.7
2022-11-03T22:05:00.294Z,4.6
2022-11-03T22:10:00.254Z,5.0
2022-11-03T22:15:00.282Z,4.8
2022-11-03T22:20:00.255Z,4.5
2022-11-03T22:25:00.217Z,4.1
2022-11-03T22:30:00.621Z,3.2
2022-11-03T22:35:00.227Z,3.6
2022-11-03T22:45:00.282Z,3.4
2022-11-03T23:00:00.277Z,2.6
2022-11-03T23:05:00.211Z,2.4
2022-11-03T23:10:00.196Z,2.4
2022-11-03T23:20:00.290Z,2.0
2022-11-03T23:25:00.354Z,2.5
2022-11-03T23:30:00.264Z,2.7
2022-11-03T23:35:00.199Z,2.4
2022-11-03T23:40:00.255Z,2.5
2022-11-03T23:45:00.268Z,2.4
2022-11-03T23:50:00.276Z,2.9
2022-11-03T23:55:00.255Z,2.5
